sensor_id;sensor_type;location;lat;lon;timestamp;temperature;humidity
26049;DHT22;13822;51.568;5.086;2024-01-06T01:44:39;5.80;99.90
26049;DHT22;13822;51.568;5.086;2024-01-06T02:13:17;5.50;99.90
26049;DHT22;13822;51.568;5.086;2024-01-06T02:43:48;5.20;99.90
26049;DHT22;13822;51.568;5.086;2024-01-06T02:55:52;5.10;99.90
26049;DHT22;13822;51.568;5.086;2024-01-06T03:14:21;5.00;99.90
26049;DHT22;13822;51.568;5.086;2024-01-06T03:26:21;5.00;99.90
26049;DHT22;13822;51.568;5.086;2024-01-06T03:32:08;4.90;99.90
26049;DHT22;13822;51.568;5.086;2024-01-06T03:43:37;4.90;99.90
26049;DHT22;13822;51.568;5.086;2024-01-06T03:49:17;4.90;99.90
26049;DHT22;13822;51.568;5.086;2024-01-06T03:55:27;4.90;99.90
26049;DHT22;13822;51.568;5.086;2024-01-06T04:01:39;4.90;99.90
26049;DHT22;13822;51.568;5.086;2024-01-06T04:07:28;4.90;99.90
26049;DHT22;13822;51.568;5.086;2024-01-06T04:38:11;4.70;99.90
26049;DHT22;13822;51.568;5.086;2024-01-06T04:43:37;4.70;99.90
26049;DHT22;13822;51.568;5.086;2024-01-06T04:49:15;4.70;99.90
26049;DHT22;13822;51.568;5.086;2024-01-06T05:01:11;4.60;99.90
26049;DHT22;13822;51.568;5.086;2024-01-06T05:07:45;4.60;99.90
26049;DHT22;13822;51.568;5.086;2024-01-06T05:13:46;4.60;99.90
26049;DHT22;13822;51.568;5.086;2024-01-06T05:32:50;4.60;99.90
26049;DHT22;13822;51.568;5.086;2024-01-06T05:44:41;4.50;99.90
26049;DHT22;13822;51.568;5.086;2024-01-06T06:02:30;4.50;99.90
26049;DHT22;13822;51.568;5.086;2024-01-06T06:07:40;4.50;99.90
26049;DHT22;13822;51.568;5.086;2024-01-06T06:13:20;4.50;99.90
26049;DHT22;13822;51.568;5.086;2024-01-06T06:25:38;4.50;99.90
26049;DHT22;13822;51.568;5.086;2024-01-06T06:37:33;4.50;99.90
26049;DHT22;13822;51.568;5.086;2024-01-06T06:43:07;4.40;99.90
26049;DHT22;13822;51.568;5.086;2024-01-06T06:48:50;4.50;99.90
26049;DHT22;13822;51.568;5.086;2024-01-06T06:53:52;4.50;99.90
26049;DHT22;13822;51.568;5.086;2024-01-06T06:58:54;4.50;99.90
26049;DHT22;13822;51.568;5.086;2024-01-06T07:03:56;4.50;99.90
26049;DHT22;13822;51.568;5.086;2024-01-06T07:08:59;4.50;99.90
26049;DHT22;13822;51.568;5.086;2024-01-06T07:14:01;4.40;99.90
26049;DHT22;13822;51.568;5.086;2024-01-06T07:19:03;4.40;99.90
26049;DHT22;13822;51.568;5.086;2024-01-06T07:24:07;4.40;99.90
26049;DHT22;13822;51.568;5.086;2024-01-06T07:29:10;4.40;99.90
26049;DHT22;13822;51.568;5.086;2024-01-06T07:34:12;4.30;99.90
26049;DHT22;13822;51.568;5.086;2024-01-06T07:39:14;4.30;99.90
26049;DHT22;13822;51.568;5.086;2024-01-06T07:44:16;4.30;99.90
26049;DHT22;13822;51.568;5.086;2024-01-06T07:49:24;4.30;99.90
26049;DHT22;13822;51.568;5.086;2024-01-06T07:54:26;4.30;99.90
26049;DHT22;13822;51.568;5.086;2024-01-06T07:59:28;4.30;99.90
26049;DHT22;13822;51.568;5.086;2024-01-06T08:04:33;4.30;99.90
26049;DHT22;13822;51.568;5.086;2024-01-06T08:09:35;4.30;99.90
26049;DHT22;13822;51.568;5.086;2024-01-06T08:14:41;4.30;99.90
26049;DHT22;13822;51.568;5.086;2024-01-06T08:19:43;4.40;99.90
26049;DHT22;13822;51.568;5.086;2024-01-06T08:24:45;4.30;99.90
26049;DHT22;13822;51.568;5.086;2024-01-06T08:29:47;4.30;99.90
26049;DHT22;13822;51.568;5.086;2024-01-06T08:34:49;4.40;99.90
26049;DHT22;13822;51.568;5.086;2024-01-06T08:39:51;4.30;99.90
26049;DHT22;13822;51.568;5.086;2024-01-06T08:44:53;4.30;99.90
26049;DHT22;13822;51.568;5.086;2024-01-06T08:49:55;4.30;99.90
26049;DHT22;13822;51.568;5.086;2024-01-06T08:54:57;4.30;99.90
26049;DHT22;13822;51.568;5.086;2024-01-06T08:59:59;4.30;99.90
26049;DHT22;13822;51.568;5.086;2024-01-06T09:05:01;4.30;99.90
26049;DHT22;13822;51.568;5.086;2024-01-06T09:10:03;4.30;99.90
26049;DHT22;13822;51.568;5.086;2024-01-06T09:15:05;4.20;99.90
26049;DHT22;13822;51.568;5.086;2024-01-06T09:20:08;4.30;99.90
26049;DHT22;13822;51.568;5.086;2024-01-06T09:25:10;4.20;99.90
26049;DHT22;13822;51.568;5.086;2024-01-06T09:30:14;4.10;99.90
26049;DHT22;13822;51.568;5.086;2024-01-06T09:35:16;4.20;99.90
26049;DHT22;13822;51.568;5.086;2024-01-06T09:40:22;4.20;99.90
26049;DHT22;13822;51.568;5.086;2024-01-06T09:45:25;4.10;99.90
26049;DHT22;13822;51.568;5.086;2024-01-06T09:50:27;4.20;99.90
26049;DHT22;13822;51.568;5.086;2024-01-06T09:55:29;4.20;99.90
26049;DHT22;13822;51.568;5.086;2024-01-06T10:00:31;4.20;99.90
26049;DHT22;13822;51.568;5.086;2024-01-06T10:05:34;4.20;99.90
26049;DHT22;13822;51.568;5.086;2024-01-06T10:10:36;4.20;99.90
26049;DHT22;13822;51.568;5.086;2024-01-06T10:15:39;4.20;99.90
26049;DHT22;13822;51.568;5.086;2024-01-06T10:20:41;4.20;99.90
26049;DHT22;13822;51.568;5.086;2024-01-06T10:25:43;4.20;99.90
26049;DHT22;13822;51.568;5.086;2024-01-06T10:30:45;4.20;99.90
26049;DHT22;13822;51.568;5.086;2024-01-06T10:35:47;4.20;99.90
26049;DHT22;13822;51.568;5.086;2024-01-06T10:40:56;4.20;99.90
26049;DHT22;13822;51.568;5.086;2024-01-06T10:45:58;4.20;99.90
26049;DHT22;13822;51.568;5.086;2024-01-06T10:51:01;4.20;99.90
26049;DHT22;13822;51.568;5.086;2024-01-06T10:56:09;4.20;99.90
26049;DHT22;13822;51.568;5.086;2024-01-06T11:01:12;4.20;99.90
26049;DHT22;13822;51.568;5.086;2024-01-06T11:06:19;4.20;99.90
26049;DHT22;13822;51.568;5.086;2024-01-06T11:11:22;4.30;99.90
26049;DHT22;13822;51.568;5.086;2024-01-06T11:16:34;4.30;99.90
26049;DHT22;13822;51.568;5.086;2024-01-06T11:21:37;4.40;99.90
26049;DHT22;13822;51.568;5.086;2024-01-06T11:26:39;4.40;99.90
26049;DHT22;13822;51.568;5.086;2024-01-06T11:31:44;4.30;99.90
26049;DHT22;13822;51.568;5.086;2024-01-06T11:37:25;4.40;99.90
26049;DHT22;13822;51.568;5.086;2024-01-06T11:42:42;4.40;99.90
26049;DHT22;13822;51.568;5.086;2024-01-06T11:47:47;4.40;99.90
26049;DHT22;13822;51.568;5.086;2024-01-06T11:52:50;4.40;99.90
26049;DHT22;13822;51.568;5.086;2024-01-06T11:57:52;4.30;99.90
26049;DHT22;13822;51.568;5.086;2024-01-06T12:02:58;4.30;99.90
26049;DHT22;13822;51.568;5.086;2024-01-06T12:08:01;4.30;99.90
26049;DHT22;13822;51.568;5.086;2024-01-06T12:13:06;4.30;99.90
26049;DHT22;13822;51.568;5.086;2024-01-06T12:18:14;4.20;99.90
26049;DHT22;13822;51.568;5.086;2024-01-06T12:23:34;4.30;99.90
26049;DHT22;13822;51.568;5.086;2024-01-06T12:28:36;4.20;99.90
26049;DHT22;13822;51.568;5.086;2024-01-06T12:33:39;4.20;99.90
26049;DHT22;13822;51.568;5.086;2024-01-06T12:38:43;4.20;99.90
26049;DHT22;13822;51.568;5.086;2024-01-06T12:43:45;4.20;99.90
26049;DHT22;13822;51.568;5.086;2024-01-06T12:48:47;4.30;99.90
26049;DHT22;13822;51.568;5.086;2024-01-06T12:53:49;4.20;99.90
26049;DHT22;13822;51.568;5.086;2024-01-06T12:58:51;4.30;99.90
26049;DHT22;13822;51.568;5.086;2024-01-06T13:03:55;4.20;99.90
26049;DHT22;13822;51.568;5.086;2024-01-06T13:08:57;4.20;99.90
26049;DHT22;13822;51.568;5.086;2024-01-06T13:13:59;4.20;99.90
26049;DHT22;13822;51.568;5.086;2024-01-06T13:19:01;4.20;99.90
26049;DHT22;13822;51.568;5.086;2024-01-06T13:24:04;4.20;99.90
26049;DHT22;13822;51.568;5.086;2024-01-06T13:29:06;4.20;99.90
26049;DHT22;13822;51.568;5.086;2024-01-06T13:34:09;4.20;99.90
26049;DHT22;13822;51.568;5.086;2024-01-06T13:39:11;4.20;99.90
26049;DHT22;13822;51.568;5.086;2024-01-06T13:44:22;4.20;99.90
26049;DHT22;13822;51.568;5.086;2024-01-06T13:49:24;4.20;99.90
26049;DHT22;13822;51.568;5.086;2024-01-06T13:54:26;4.30;99.90
26049;DHT22;13822;51.568;5.086;2024-01-06T13:59:28;4.20;99.90
26049;DHT22;13822;51.568;5.086;2024-01-06T14:04:30;4.20;99.90
26049;DHT22;13822;51.568;5.086;2024-01-06T14:09:32;4.20;99.90
26049;DHT22;13822;51.568;5.086;2024-01-06T14:14:35;4.20;99.90
26049;DHT22;13822;51.568;5.086;2024-01-06T14:19:37;4.20;99.90
26049;DHT22;13822;51.568;5.086;2024-01-06T14:24:39;4.20;99.90
26049;DHT22;13822;51.568;5.086;2024-01-06T14:29:41;4.20;99.90
26049;DHT22;13822;51.568;5.086;2024-01-06T14:34:43;4.20;99.90
26049;DHT22;13822;51.568;5.086;2024-01-06T14:39:45;4.20;99.90
26049;DHT22;13822;51.568;5.086;2024-01-06T14:44:47;4.10;99.90
26049;DHT22;13822;51.568;5.086;2024-01-06T14:49:49;4.10;99.90
26049;DHT22;13822;51.568;5.086;2024-01-06T14:54:51;4.10;99.90
26049;DHT22;13822;51.568;5.086;2024-01-06T14:59:53;4.20;99.90
26049;DHT22;13822;51.568;5.086;2024-01-06T15:04:55;4.10;99.90
26049;DHT22;13822;51.568;5.086;2024-01-06T15:10:01;4.00;99.90
26049;DHT22;13822;51.568;5.086;2024-01-06T15:15:05;3.90;99.90
26049;DHT22;13822;51.568;5.086;2024-01-06T15:20:09;3.90;99.90
26049;DHT22;13822;51.568;5.086;2024-01-06T15:25:11;3.90;99.90
26049;DHT22;13822;51.568;5.086;2024-01-06T15:30:14;3.80;99.90
26049;DHT22;13822;51.568;5.086;2024-01-06T15:35:17;3.90;99.90
26049;DHT22;13822;51.568;5.086;2024-01-06T15:40:24;3.90;99.90
26049;DHT22;13822;51.568;5.086;2024-01-06T15:45:26;3.90;99.90
26049;DHT22;13822;51.568;5.086;2024-01-06T15:50:28;3.90;99.90
26049;DHT22;13822;51.568;5.086;2024-01-06T15:55:30;3.90;99.90
26049;DHT22;13822;51.568;5.086;2024-01-06T16:00:32;3.90;99.90
26049;DHT22;13822;51.568;5.086;2024-01-06T16:05:41;3.90;99.90
26049;DHT22;13822;51.568;5.086;2024-01-06T16:11:34;3.90;99.90
26049;DHT22;13822;51.568;5.086;2024-01-06T16:36:07;3.90;99.90
26049;DHT22;13822;51.568;5.086;2024-01-06T16:48:44;3.90;99.90
26049;DHT22;13822;51.568;5.086;2024-01-06T16:55:06;3.90;99.90
26049;DHT22;13822;51.568;5.086;2024-01-06T17:13:37;3.80;99.90
26049;DHT22;13822;51.568;5.086;2024-01-06T17:37:51;3.80;99.90
26049;DHT22;13822;51.568;5.086;2024-01-06T17:44:09;3.80;99.90
26049;DHT22;13822;51.568;5.086;2024-01-06T17:56:28;3.80;99.90
26049;DHT22;13822;51.568;5.086;2024-01-06T18:02:17;3.80;99.90
26049;DHT22;13822;51.568;5.086;2024-01-06T18:07:46;3.90;99.90
26049;DHT22;13822;51.568;5.086;2024-01-06T18:58:25;3.80;99.90
26049;DHT22;13822;51.568;5.086;2024-01-06T19:29:23;3.60;99.90
26049;DHT22;13822;51.568;5.086;2024-01-06T19:47:23;3.60;99.90
26049;DHT22;13822;51.568;5.086;2024-01-06T20:05:51;3.40;99.90
26049;DHT22;13822;51.568;5.086;2024-01-06T20:11:14;3.50;99.90
26049;DHT22;13822;51.568;5.086;2024-01-06T20:29:20;3.40;99.90
26049;DHT22;13822;51.568;5.086;2024-01-06T20:52:55;3.20;99.90
26049;DHT22;13822;51.568;5.086;2024-01-06T20:59:18;3.20;99.90
26049;DHT22;13822;51.568;5.086;2024-01-06T21:05:09;3.10;99.90
26049;DHT22;13822;51.568;5.086;2024-01-06T21:17:10;2.90;99.90
26049;DHT22;13822;51.568;5.086;2024-01-06T21:29:15;2.80;99.90
26049;DHT22;13822;51.568;5.086;2024-01-06T22:01:34;2.60;99.90
26049;DHT22;13822;51.568;5.086;2024-01-06T23:34:15;2.20;99.90
26049;DHT22;13822;51.568;5.086;2024-01-06T23:46:53;2.10;99.90
26049;DHT22;13822;51.568;5.086;2024-01-06T23:52:31;2.10;99.90
26049;DHT22;13822;51.568;5.086;2024-01-06T23:58:31;2.00;99.90
